createdAt,value
2023-01-01T00:00:27.700Z,997.76
2023-01-01T00:01:27.686Z,997.97
2023-01-01T00:02:27.667Z,997.82
2023-01-01T00:03:27.683Z,997.8
2023-01-01T00:04:27.649Z,997.88
2023-01-01T00:05:27.643Z,997.72
2023-01-01T00:06:27.629Z,997.72
2023-01-01T00:07:27.637Z,997.87
2023-01-01T00:08:27.609Z,997.93
2023-01-01T00:09:27.596Z,997.84
2023-01-01T00:10:27.624Z,997.8
2023-01-01T00:11:27.606Z,997.92
2023-01-01T00:12:27.577Z,997.9
2023-01-01T00:13:27.556Z,997.91
2023-01-01T00:14:27.543Z,997.94
2023-01-01T00:15:27.550Z,997.89
2023-01-01T00:16:27.536Z,997.87
2023-01-01T00:17:27.550Z,997.89
2023-01-01T00:18:27.523Z,997.85
2023-01-01T00:19:27.498Z,997.88
2023-01-01T00:20:27.498Z,997.9
2023-01-01T00:21:27.468Z,997.86
2023-01-01T00:22:27.480Z,997.81
2023-01-01T00:23:27.457Z,997.7
2023-01-01T00:24:27.444Z,997.9
2023-01-01T00:25:27.431Z,997.99
2023-01-01T00:26:27.464Z,997.67
2023-01-01T00:27:27.410Z,997.75
2023-01-01T00:28:27.419Z,997.87
2023-01-01T00:29:27.407Z,997.76
2023-01-01T00:30:27.371Z,997.97
2023-01-01T00:31:27.363Z,997.85
2023-01-01T00:32:27.359Z,997.9
2023-01-01T00:33:27.359Z,997.92
2023-01-01T00:34:27.341Z,997.8
2023-01-01T00:35:27.321Z,997.89
2023-01-01T00:36:27.315Z,997.88
2023-01-01T00:37:27.335Z,997.75
2023-01-01T00:38:27.291Z,997.78
2023-01-01T00:39:27.280Z,997.82
2023-01-01T00:40:27.305Z,997.86
2023-01-01T00:41:27.264Z,997.75
2023-01-01T00:42:27.290Z,997.75
2023-01-01T00:43:27.240Z,997.82
2023-01-01T00:44:27.229Z,997.82
2023-01-01T00:45:27.215Z,997.82
2023-01-01T00:46:27.228Z,997.88
2023-01-01T00:47:27.198Z,997.8
2023-01-01T00:48:27.186Z,997.81
2023-01-01T00:49:27.195Z,997.84
2023-01-01T00:50:27.164Z,997.9
2023-01-01T00:51:27.162Z,997.93
2023-01-01T00:52:27.174Z,997.94
2023-01-01T00:53:27.139Z,997.94
2023-01-01T00:54:27.124Z,998.14
2023-01-01T00:55:27.255Z,998.04
2023-01-01T00:56:27.096Z,997.91
2023-01-01T00:57:27.096Z,997.92
2023-01-01T00:58:27.088Z,997.94
2023-01-01T00:59:27.085Z,998.13
2023-01-01T01:00:27.062Z,998.07
2023-01-01T01:01:27.051Z,998.01
2023-01-01T01:02:27.042Z,998.1
2023-01-01T01:03:27.026Z,998.08
2023-01-01T01:04:27.014Z,998.09
2023-01-01T01:05:27.049Z,998.15
2023-01-01T01:06:26.999Z,998.07
2023-01-01T01:07:26.984Z,998.15
2023-01-01T01:08:26.976Z,998.2
2023-01-01T01:09:26.964Z,998.18
2023-01-01T01:10:26.952Z,998.15
2023-01-01T01:11:26.945Z,998.27
2023-01-01T01:12:26.951Z,998.18
2023-01-01T01:13:26.929Z,998.1
2023-01-01T01:14:26.923Z,998.26
2023-01-01T01:15:26.904Z,998.29
2023-01-01T01:16:26.891Z,997.85
2023-01-01T01:17:26.891Z,998.13
2023-01-01T01:18:26.882Z,998.08
2023-01-01T01:19:26.864Z,998.03
2023-01-01T01:20:26.902Z,998.14
2023-01-01T01:21:26.847Z,998.05
2023-01-01T01:22:26.874Z,998.09
2023-01-01T01:23:26.819Z,998.04
2023-01-01T01:24:26.807Z,998.12
2023-01-01T01:25:26.806Z,998.24
2023-01-01T01:26:26.818Z,998.12
2023-01-01T01:27:26.779Z,998.14
2023-01-01T01:28:26.763Z,998.1
2023-01-01T01:29:26.754Z,998.22
2023-01-01T01:30:26.751Z,998.13
2023-01-01T01:31:26.734Z,998.14
2023-01-01T01:32:26.725Z,998.15
2023-01-01T01:33:26.713Z,998.13
2023-01-01T01:34:26.729Z,998.12
2023-01-01T01:35:26.741Z,998.03
2023-01-01T01:36:26.708Z,998.09
2023-01-01T01:37:26.673Z,998.13
2023-01-01T01:38:26.665Z,998.09
2023-01-01T01:39:26.656Z,998.05
2023-01-01T01:40:26.678Z,998.12
2023-01-01T01:41:26.629Z,998.13
2023-01-01T01:42:26.617Z,998.09
2023-01-01T01:43:26.627Z,998.03
2023-01-01T01:44:26.616Z,998.06
2023-01-01T01:45:26.597Z,998.14
2023-01-01T01:46:26.628Z,998.12
2023-01-01T01:47:26.614Z,998.16
2023-01-01T01:48:26.556Z,998.13
2023-01-01T01:49:26.545Z,998.14
2023-01-01T01:50:26.594Z,998.22
2023-01-01T01:51:26.552Z,998.27
2023-01-01T01:52:26.531Z,998.19
2023-01-01T01:53:26.502Z,998.32
2023-01-01T01:54:26.492Z,998.22
2023-01-01T01:55:26.514Z,998.35
2023-01-01T01:56:26.477Z,998.23
2023-01-01T01:57:26.463Z,998.2
2023-01-01T01:58:26.445Z,998.35
2023-01-01T01:59:26.474Z,998.34
2023-01-01T02:00:26.430Z,998.29
2023-01-01T02:01:26.414Z,998.18
2023-01-01T02:02:26.429Z,998.32
2023-01-01T02:03:26.405Z,998.22
2023-01-01T02:04:26.387Z,998.27
2023-01-01T02:05:26.746Z,998.28
2023-01-01T02:06:26.361Z,998.23
2023-01-01T02:07:26.373Z,998.34
2023-01-01T02:08:26.345Z,998.28
2023-01-01T02:09:26.330Z,998.49
2023-01-01T02:10:26.315Z,998.36
2023-01-01T02:11:26.314Z,998.31
2023-01-01T02:12:26.300Z,998.37
2023-01-01T02:13:26.289Z,998.35
2023-01-01T02:14:26.300Z,998.39
2023-01-01T02:15:26.263Z,998.44
2023-01-01T02:16:26.264Z,998.33
2023-01-01T02:17:26.245Z,998.39
2023-01-01T02:18:26.235Z,998.37
2023-01-01T02:19:26.231Z,998.38
2023-01-01T02:20:26.226Z,998.4
2023-01-01T02:21:26.216Z,998.33
2023-01-01T02:22:26.192Z,998.44
2023-01-01T02:23:26.187Z,998.4
2023-01-01T02:24:26.194Z,998.46
2023-01-01T02:25:26.176Z,998.46
2023-01-01T02:26:26.299Z,998.42
2023-01-01T02:27:26.215Z,998.49
2023-01-01T02:28:26.122Z,998.59
2023-01-01T02:29:26.111Z,998.53
2023-01-01T02:30:26.112Z,998.46
2023-01-01T02:31:26.123Z,998.44
2023-01-01T02:32:26.086Z,998.57
2023-01-01T02:33:26.133Z,998.5
2023-01-01T02:34:26.058Z,998.54
2023-01-01T02:35:26.059Z,998.51
2023-01-01T02:36:26.047Z,998.53
2023-01-01T02:37:26.029Z,998.6
2023-01-01T02:38:26.082Z,998.56
2023-01-01T02:39:26.002Z,998.47
2023-01-01T02:40:26.007Z,998.61
2023-01-01T02:41:25.985Z,998.53
2023-01-01T02:42:25.974Z,998.48
2023-01-01T02:43:25.982Z,998.58
2023-01-01T02:44:25.960Z,998.52
2023-01-01T02:45:25.939Z,998.61
2023-01-01T02:46:25.938Z,998.45
2023-01-01T02:47:25.931Z,998.5
2023-01-01T02:48:25.918Z,998.49
2023-01-01T02:49:25.918Z,998.55
2023-01-01T02:50:25.934Z,998.52
2023-01-01T02:51:25.908Z,998.5
2023-01-01T02:52:25.867Z,998.64
2023-01-01T02:53:25.899Z,998.5
2023-01-01T02:54:25.854Z,998.5
2023-01-01T02:55:25.899Z,998.56
2023-01-01T02:56:25.893Z,998.42
2023-01-01T02:57:25.853Z,998.47
2023-01-01T02:58:25.828Z,998.57
2023-01-01T02:59:25.800Z,998.53
2023-01-01T03:00:25.794Z,998.48
2023-01-01T03:01:25.828Z,998.51
2023-01-01T03:02:25.829Z,998.6
2023-01-01T03:03:25.755Z,998.66
2023-01-01T03:04:25.748Z,998.51
2023-01-01T03:05:25.750Z,998.62
2023-01-01T03:06:25.738Z,998.6
2023-01-01T03:07:25.710Z,998.61
2023-01-01T03:08:25.738Z,998.57
2023-01-01T03:09:25.691Z,998.61
2023-01-01T03:10:25.686Z,998.57
2023-01-01T03:11:25.689Z,998.48
2023-01-01T03:12:25.706Z,998.48
2023-01-01T03:13:25.651Z,998.54
2023-01-01T03:14:25.637Z,998.54
2023-01-01T03:15:25.831Z,998.57
2023-01-01T03:16:25.622Z,998.58
2023-01-01T03:17:25.604Z,998.54
2023-01-01T03:18:25.663Z,998.61
2023-01-01T03:19:25.591Z,998.48
2023-01-01T03:20:25.732Z,998.57
2023-01-01T03:21:25.604Z,998.53
2023-01-01T03:22:25.549Z,998.57
2023-01-01T03:23:25.578Z,998.42
2023-01-01T03:24:25.530Z,998.37
2023-01-01T03:25:25.527Z,998.5
2023-01-01T03:26:25.508Z,998.47
2023-01-01T03:27:25.675Z,998.54
2023-01-01T03:28:25.685Z,998.52
2023-01-01T03:29:25.481Z,998.45
2023-01-01T03:30:25.464Z,998.41
2023-01-01T03:31:25.465Z,998.51
2023-01-01T03:32:25.448Z,998.52
2023-01-01T03:33:25.433Z,998.57
2023-01-01T03:34:25.461Z,998.56
2023-01-01T03:35:25.411Z,998.53
2023-01-01T03:36:25.534Z,998.63
2023-01-01T03:37:25.391Z,998.54
2023-01-01T03:38:25.382Z,998.56
2023-01-01T03:39:25.374Z,998.48
2023-01-01T03:40:25.374Z,998.48
2023-01-01T03:41:25.358Z,998.65
2023-01-01T03:42:25.345Z,998.63
2023-01-01T03:43:25.353Z,998.72
2023-01-01T03:44:25.315Z,998.62
2023-01-01T03:45:25.302Z,998.66
2023-01-01T03:46:25.313Z,998.64
2023-01-01T03:47:25.294Z,998.66
2023-01-01T03:48:25.272Z,998.7
2023-01-01T03:49:25.268Z,998.61
2023-01-01T03:50:25.259Z,998.72
2023-01-01T03:51:25.242Z,998.65
2023-01-01T03:52:25.232Z,998.66
2023-01-01T03:53:25.234Z,998.63
2023-01-01T03:54:25.243Z,998.64
2023-01-01T03:55:25.207Z,998.68
2023-01-01T03:56:25.218Z,998.53
2023-01-01T03:57:25.196Z,998.64
2023-01-01T03:58:25.181Z,998.72
2023-01-01T03:59:25.152Z,998.75
2023-01-01T04:00:25.147Z,998.74
2023-01-01T04:01:25.133Z,998.64
2023-01-01T04:02:25.182Z,998.72
2023-01-01T04:03:25.110Z,998.66
2023-01-01T04:04:25.161Z,998.7
2023-01-01T04:05:25.097Z,998.72
2023-01-01T04:06:25.077Z,998.76
2023-01-01T04:07:25.074Z,998.65
2023-01-01T04:08:25.065Z,998.74
2023-01-01T04:09:25.046Z,998.66
2023-01-01T04:10:25.033Z,998.75
2023-01-01T04:11:25.022Z,998.72
2023-01-01T04:12:25.026Z,998.66
2023-01-01T04:13:24.999Z,998.8
2023-01-01T04:14:24.988Z,998.75
2023-01-01T04:15:24.982Z,998.77
2023-01-01T04:16:24.971Z,998.71
2023-01-01T04:17:24.959Z,998.68
2023-01-01T04:18:25.061Z,998.66
2023-01-01T04:19:24.934Z,998.75
2023-01-01T04:20:24.932Z,998.73
2023-01-01T04:21:24.916Z,998.71
2023-01-01T04:22:24.908Z,998.75
2023-01-01T04:23:24.895Z,998.71
2023-01-01T04:24:24.887Z,998.79
2023-01-01T04:25:24.870Z,998.68
2023-01-01T04:26:24.862Z,998.71
2023-01-01T04:27:24.852Z,998.69
2023-01-01T04:28:24.845Z,998.72
2023-01-01T04:29:24.828Z,998.67
2023-01-01T04:30:24.835Z,998.62
2023-01-01T04:31:24.804Z,998.69
2023-01-01T04:32:24.795Z,998.73
2023-01-01T04:33:24.784Z,998.69
2023-01-01T04:34:24.771Z,998.74
2023-01-01T04:35:24.761Z,998.77
2023-01-01T04:36:24.786Z,998.73
2023-01-01T04:37:24.744Z,998.76
2023-01-01T04:38:24.732Z,998.82
2023-01-01T04:39:24.721Z,998.85
2023-01-01T04:40:24.719Z,998.85
2023-01-01T04:41:24.703Z,998.84
2023-01-01T04:42:24.688Z,998.89
2023-01-01T04:43:24.686Z,998.87
2023-01-01T04:44:24.669Z,998.88
2023-01-01T04:45:24.655Z,998.87
2023-01-01T04:46:24.657Z,998.91
2023-01-01T04:47:24.633Z,998.88
2023-01-01T04:48:24.633Z,998.99
2023-01-01T04:49:24.613Z,999.07
2023-01-01T04:50:24.604Z,999.05
2023-01-01T04:51:24.603Z,999.07
2023-01-01T04:52:24.578Z,999
2023-01-01T04:53:24.571Z,999.03
2023-01-01T04:54:24.561Z,999.13
2023-01-01T04:55:24.550Z,999.1
2023-01-01T04:56:24.539Z,999.11
2023-01-01T04:57:24.522Z,998.96
2023-01-01T04:58:24.529Z,999.04
2023-01-01T04:59:24.519Z,999.04
2023-01-01T05:00:24.491Z,999.13
2023-01-01T05:01:24.495Z,999.15
2023-01-01T05:02:24.468Z,999.05
2023-01-01T05:03:24.464Z,999.06
2023-01-01T05:04:24.453Z,999.05
2023-01-01T05:05:24.451Z,998.99
2023-01-01T05:06:24.432Z,998.99
2023-01-01T05:07:24.422Z,999.13
2023-01-01T05:08:24.402Z,999.04
2023-01-01T05:09:24.390Z,999.04
2023-01-01T05:10:24.386Z,999.08
2023-01-01T05:11:24.371Z,999.05
2023-01-01T05:12:24.358Z,999.11
2023-01-01T05:13:24.369Z,999.07
2023-01-01T05:14:24.339Z,999.11
2023-01-01T05:15:24.333Z,999.17
2023-01-01T05:16:24.319Z,999.1
2023-01-01T05:17:24.305Z,999.13
2023-01-01T05:18:24.299Z,999.08
2023-01-01T05:19:24.298Z,999.08
2023-01-01T05:20:24.279Z,999.09
2023-01-01T05:21:24.267Z,999.18
2023-01-01T05:22:24.250Z,999.18
2023-01-01T05:23:24.238Z,999.22
2023-01-01T05:24:24.232Z,999.05
2023-01-01T05:25:24.244Z,999.11
2023-01-01T05:26:24.216Z,999.17
2023-01-01T05:27:24.199Z,999.23
2023-01-01T05:28:24.191Z,999.23
2023-01-01T05:29:24.175Z,999.31
2023-01-01T05:30:24.167Z,999.3
2023-01-01T05:31:24.171Z,999.41
2023-01-01T05:32:24.170Z,999.21
2023-01-01T05:33:24.131Z,999.29
2023-01-01T05:34:24.121Z,999.37
2023-01-01T05:35:24.120Z,999.6
2023-01-01T05:36:24.099Z,999.39
2023-01-01T05:37:24.113Z,999.28
2023-01-01T05:38:24.078Z,999.48
2023-01-01T05:39:24.068Z,999.46
2023-01-01T05:40:24.056Z,999.46
2023-01-01T05:41:24.049Z,999.44
2023-01-01T05:42:24.034Z,999.56
2023-01-01T05:43:24.028Z,999.59
2023-01-01T05:44:24.024Z,999.61
2023-01-01T05:45:24.006Z,999.73
2023-01-01T05:46:23.992Z,999.78
2023-01-01T05:47:23.979Z,999.89
2023-01-01T05:48:23.974Z,999.88
2023-01-01T05:49:23.959Z,999.85
2023-01-01T05:50:23.952Z,999.67
2023-01-01T05:51:23.940Z,999.71
2023-01-01T05:52:23.926Z,999.62
2023-01-01T05:53:23.917Z,999.62
2023-01-01T05:54:23.899Z,999.67
2023-01-01T05:55:23.894Z,999.64
2023-01-01T05:56:23.888Z,999.61
2023-01-01T05:57:23.868Z,999.62
2023-01-01T05:58:23.857Z,999.63
2023-01-01T05:59:23.846Z,999.69
2023-01-01T06:00:23.836Z,999.72
2023-01-01T06:01:23.827Z,999.8
2023-01-01T06:02:23.836Z,999.78
2023-01-01T06:06:21.743Z,999.68
2023-01-01T06:07:21.407Z,999.62
2023-01-01T06:08:21.387Z,999.54
2023-01-01T06:09:21.406Z,999.73
2023-01-01T06:10:22.337Z,999.77
2023-01-01T06:11:21.319Z,999.69
2023-01-01T06:12:21.316Z,999.8
2023-01-01T06:13:21.295Z,999.78
2023-01-01T06:14:21.288Z,999.84
2023-01-01T06:15:21.291Z,999.69
2023-01-01T06:16:21.261Z,999.62
2023-01-01T06:17:21.252Z,999.67
2023-01-01T06:18:21.244Z,999.74
2023-01-01T06:19:21.233Z,999.7
2023-01-01T06:20:21.227Z,999.89
2023-01-01T06:21:21.211Z,999.88
2023-01-01T06:22:21.199Z,999.94
2023-01-01T06:23:21.190Z,999.83
2023-01-01T06:24:21.186Z,999.96
2023-01-01T06:25:21.166Z,1000.09
2023-01-01T06:26:21.162Z,999.93
2023-01-01T06:27:21.149Z,999.96
2023-01-01T06:28:21.137Z,999.81
2023-01-01T06:29:21.128Z,999.87
2023-01-01T06:30:21.110Z,999.87
2023-01-01T06:31:21.097Z,999.83
2023-01-01T06:32:21.097Z,999.86
2023-01-01T06:33:21.082Z,999.85
2023-01-01T06:34:21.081Z,999.88
2023-01-01T06:35:21.057Z,999.75
2023-01-01T06:36:21.055Z,999.82
2023-01-01T06:37:21.042Z,999.86
2023-01-01T06:38:21.020Z,999.77
2023-01-01T06:39:21.013Z,999.83
2023-01-01T06:40:21.020Z,999.89
2023-01-01T06:41:20.995Z,999.95
2023-01-01T06:42:20.977Z,999.9
2023-01-01T06:43:21.039Z,1000.04
2023-01-01T06:44:20.958Z,1000.04
2023-01-01T06:45:20.954Z,1000.1
2023-01-01T06:46:20.951Z,1000.12
2023-01-01T06:47:20.933Z,1000.2
2023-01-01T06:48:20.913Z,1000.28
2023-01-01T06:49:20.918Z,1000.26
2023-01-01T06:50:20.894Z,1000.4
2023-01-01T06:51:20.882Z,1000.43
2023-01-01T06:52:20.875Z,1000.48
2023-01-01T06:53:20.866Z,1000.37
2023-01-01T06:54:20.847Z,1000.42
2023-01-01T06:55:20.844Z,1000.39
2023-01-01T06:56:20.827Z,1000.33
2023-01-01T06:57:20.815Z,1000.41
2023-01-01T06:58:20.809Z,1000.38
2023-01-01T06:59:20.797Z,1000.42
2023-01-01T07:00:20.794Z,1000.37
2023-01-01T07:01:20.785Z,1000.46
2023-01-01T07:02:20.771Z,1000.46
2023-01-01T07:03:20.787Z,1000.43
2023-01-01T07:04:20.752Z,1000.44
2023-01-01T07:05:20.725Z,1000.49
2023-01-01T07:06:20.718Z,1000.51
2023-01-01T07:07:20.708Z,1000.53
2023-01-01T07:08:20.698Z,1000.52
2023-01-01T07:09:20.691Z,1000.58
2023-01-01T07:10:20.671Z,1000.72
2023-01-01T07:11:20.662Z,1000.6
2023-01-01T07:12:20.652Z,1000.65
2023-01-01T07:13:20.642Z,1000.68
2023-01-01T07:14:20.630Z,1000.56
2023-01-01T07:15:20.623Z,1000.64
2023-01-01T07:16:20.625Z,1000.7
2023-01-01T07:17:20.601Z,1000.7
2023-01-01T07:18:20.593Z,1000.72
2023-01-01T07:19:20.572Z,1000.77
2023-01-01T07:20:20.561Z,1000.76
2023-01-01T07:21:20.553Z,1000.86
2023-01-01T07:22:20.554Z,1000.72
2023-01-01T07:23:20.530Z,1000.83
2023-01-01T07:24:20.518Z,1000.69
2023-01-01T07:25:20.510Z,1000.83
2023-01-01T07:26:20.495Z,1000.85
2023-01-01T07:27:20.491Z,1000.87
2023-01-01T07:28:20.494Z,1001.03
2023-01-01T07:29:20.467Z,1000.98
2023-01-01T07:30:20.463Z,1001.15
2023-01-01T07:31:20.443Z,1001
2023-01-01T07:32:20.435Z,1001.11
2023-01-01T07:33:20.422Z,1001.05
2023-01-01T07:34:20.426Z,1001.11
2023-01-01T07:35:20.401Z,1001.2
2023-01-01T07:36:20.388Z,1001.23
2023-01-01T07:37:20.377Z,1001.29
2023-01-01T07:38:20.366Z,1001.25
2023-01-01T07:39:20.535Z,1001.28
2023-01-01T07:40:20.339Z,1001.35
2023-01-01T07:41:20.349Z,1001.31
2023-01-01T07:42:20.377Z,1001.27
2023-01-01T07:43:20.309Z,1001.34
2023-01-01T07:44:20.306Z,1001.16
2023-01-01T07:45:20.361Z,1001.18
2023-01-01T07:46:20.281Z,1001.16
2023-01-01T07:47:20.266Z,1001.28
2023-01-01T07:48:20.264Z,1001.1
2023-01-01T07:49:20.246Z,1001.21
2023-01-01T07:50:20.240Z,1001.11
2023-01-01T07:51:20.233Z,1001.2
2023-01-01T07:52:20.213Z,1001.12
2023-01-01T07:53:20.203Z,1001.11
2023-01-01T07:54:20.189Z,1001.12
2023-01-01T07:55:20.192Z,1001.12
2023-01-01T07:56:20.210Z,1001.14
2023-01-01T07:57:20.165Z,1001.06
2023-01-01T07:58:20.212Z,1001.33
2023-01-01T07:59:20.149Z,1001.19
2023-01-01T08:00:20.125Z,1001.15
2023-01-01T08:01:20.123Z,1001.3
2023-01-01T08:02:20.126Z,1001.2
2023-01-01T08:03:20.090Z,1001.16
2023-01-01T08:04:20.078Z,1001.17
2023-01-01T08:05:20.070Z,1001.14
2023-01-01T08:06:20.058Z,1001.15
2023-01-01T08:07:20.118Z,1001.16
2023-01-01T08:08:20.080Z,1001.22
2023-01-01T08:09:20.081Z,1001.14
2023-01-01T08:10:20.052Z,1001.1
2023-01-01T08:11:20.011Z,1001.19
2023-01-01T08:12:20.014Z,1001.26
2023-01-01T08:13:19.991Z,1001.25
2023-01-01T08:14:19.984Z,1001.26
2023-01-01T08:15:19.971Z,1001.41
2023-01-01T08:16:19.950Z,1001.39
2023-01-01T08:17:19.958Z,1001.33
2023-01-01T08:18:19.931Z,1001.4
2023-01-01T08:19:19.920Z,1001.36
2023-01-01T08:20:19.932Z,1001.42
2023-01-01T08:21:19.896Z,1001.43
2023-01-01T08:22:19.892Z,1001.53
2023-01-01T08:23:19.878Z,1001.43
2023-01-01T08:24:19.923Z,1001.6
2023-01-01T08:25:19.874Z,1001.47
2023-01-01T08:26:19.837Z,1001.48
2023-01-01T08:27:19.846Z,1001.48
2023-01-01T08:28:19.816Z,1001.49
2023-01-01T08:29:19.822Z,1001.59
2023-01-01T08:30:19.806Z,1001.6
2023-01-01T08:31:19.783Z,1001.65
2023-01-01T08:32:19.775Z,1001.65
2023-01-01T08:33:19.761Z,1001.71
2023-01-01T08:34:19.750Z,1001.71
2023-01-01T08:35:19.741Z,1001.71
2023-01-01T08:36:19.742Z,1001.76
2023-01-01T08:37:19.726Z,1001.72
2023-01-01T08:38:19.721Z,1001.8
2023-01-01T08:39:19.698Z,1001.83
2023-01-01T08:40:19.685Z,1001.95
2023-01-01T08:41:19.685Z,1001.79
2023-01-01T08:42:19.695Z,1001.9
2023-01-01T08:43:19.663Z,1001.89
2023-01-01T08:44:19.643Z,1001.9
2023-01-01T08:45:19.634Z,1002.02
2023-01-01T08:46:19.622Z,1001.97
2023-01-01T08:47:19.615Z,1002.05
2023-01-01T08:48:19.608Z,1002
2023-01-01T08:49:19.589Z,1002.18
2023-01-01T08:50:19.585Z,1002.17
2023-01-01T08:51:19.569Z,1002.08
2023-01-01T08:52:19.555Z,1002.11
2023-01-01T08:53:19.554Z,1002.17
2023-01-01T08:54:19.538Z,1002.24
2023-01-01T08:55:19.528Z,1002.23
2023-01-01T08:56:19.521Z,1002.27
2023-01-01T08:57:19.509Z,1002.37
2023-01-01T08:58:19.495Z,1002.26
2023-01-01T08:59:19.483Z,1002.44
2023-01-01T09:00:19.511Z,1002.34
2023-01-01T09:01:19.463Z,1002.44
2023-01-01T09:02:19.448Z,1002.45
2023-01-01T09:03:19.445Z,1002.41
2023-01-01T09:04:19.434Z,1002.41
2023-01-01T09:05:19.443Z,1002.43
2023-01-01T09:06:19.482Z,1002.49
2023-01-01T09:07:19.404Z,1002.46
2023-01-01T09:08:19.384Z,1002.36
2023-01-01T09:09:19.371Z,1002.4
2023-01-01T09:10:19.375Z,1002.39
2023-01-01T09:11:19.349Z,1002.46
2023-01-01T09:12:19.349Z,1002.44
2023-01-01T09:13:19.331Z,1002.46
2023-01-01T09:14:19.321Z,1002.52
2023-01-01T09:15:19.308Z,1002.5
2023-01-01T09:16:19.301Z,1002.62
2023-01-01T09:17:19.285Z,1002.6
2023-01-01T09:18:19.274Z,1002.58
2023-01-01T09:19:19.272Z,1002.65
2023-01-01T09:20:19.254Z,1002.62
2023-01-01T09:21:19.246Z,1002.7
2023-01-01T09:22:19.235Z,1002.67
2023-01-01T09:23:19.219Z,1002.65
2023-01-01T09:24:19.210Z,1002.69
2023-01-01T09:25:19.212Z,1002.71
2023-01-01T09:26:19.189Z,1002.7
2023-01-01T09:27:19.180Z,1002.75
2023-01-01T09:28:19.180Z,1002.78
2023-01-01T09:29:19.157Z,1002.81
2023-01-01T09:30:19.144Z,1002.76
2023-01-01T09:31:19.141Z,1002.83
2023-01-01T09:32:19.127Z,1002.85
2023-01-01T09:33:19.110Z,1002.94
2023-01-01T09:34:19.139Z,1002.88
2023-01-01T09:35:19.090Z,1003.02
2023-01-01T09:36:19.087Z,1003.01
2023-01-01T09:37:19.074Z,1003.03
2023-01-01T09:38:19.060Z,1003.11
2023-01-01T09:39:19.050Z,1003.1
2023-01-01T09:40:19.057Z,1003.1
2023-01-01T09:41:19.085Z,1003.08
2023-01-01T09:42:19.059Z,1003.22
2023-01-01T09:43:19.014Z,1003.24
2023-01-01T09:44:19.037Z,1003.24
2023-01-01T09:45:18.991Z,1003.28
2023-01-01T09:46:18.978Z,1003.23
2023-01-01T09:47:18.979Z,1003.3
2023-01-01T09:48:18.956Z,1003.27
2023-01-01T09:49:18.949Z,1003.3
2023-01-01T09:50:18.945Z,1003.27
2023-01-01T09:51:18.954Z,1003.28
2023-01-01T09:52:18.934Z,1003.3
2023-01-01T09:53:18.908Z,1003.39
2023-01-01T09:54:18.914Z,1003.37
2023-01-01T09:55:18.907Z,1003.4
2023-01-01T09:56:18.877Z,1003.41
2023-01-01T09:57:18.875Z,1003.42
2023-01-01T09:58:18.855Z,1003.48
2023-01-01T09:59:18.844Z,1003.51
2023-01-01T10:00:18.833Z,1003.59
2023-01-01T10:01:18.845Z,1003.52
2023-01-01T10:02:18.812Z,1003.6
2023-01-01T10:03:18.832Z,1003.58
2023-01-01T10:04:18.790Z,1003.67
2023-01-01T10:05:18.788Z,1003.58
2023-01-01T10:06:18.768Z,1003.6
2023-01-01T10:07:18.764Z,1003.51
2023-01-01T10:08:18.755Z,1003.55
2023-01-01T10:09:18.739Z,1003.53
2023-01-01T10:10:18.725Z,1003.49
2023-01-01T10:11:18.716Z,1003.51
2023-01-01T10:12:18.711Z,1003.54
2023-01-01T10:13:18.700Z,1003.59
2023-01-01T10:14:18.701Z,1003.54
2023-01-01T10:15:18.679Z,1003.55
2023-01-01T10:16:18.668Z,1003.48
2023-01-01T10:17:18.659Z,1003.43
2023-01-01T10:18:18.656Z,1003.52
2023-01-01T10:19:18.633Z,1003.59
2023-01-01T10:20:18.651Z,1003.61
2023-01-01T10:21:18.617Z,1003.58
2023-01-01T10:22:18.609Z,1003.6
2023-01-01T10:23:18.594Z,1003.65
2023-01-01T10:24:18.581Z,1003.75
2023-01-01T10:25:18.573Z,1003.75
2023-01-01T10:26:18.567Z,1003.74
2023-01-01T10:27:18.552Z,1003.76
2023-01-01T10:28:18.542Z,1003.78
2023-01-01T10:29:18.525Z,1003.78
2023-01-01T10:30:18.517Z,1003.8
2023-01-01T10:31:18.506Z,1003.79
2023-01-01T10:32:18.505Z,1003.84
2023-01-01T10:33:18.519Z,1003.78
2023-01-01T10:34:18.494Z,1003.73
2023-01-01T10:35:18.487Z,1003.74
2023-01-01T10:36:18.454Z,1003.81
2023-01-01T10:37:18.555Z,1003.83
2023-01-01T10:38:18.442Z,1003.77
2023-01-01T10:39:18.438Z,1003.74
2023-01-01T10:40:18.433Z,1003.78
2023-01-01T10:41:18.401Z,1003.75
2023-01-01T10:42:18.402Z,1003.78
2023-01-01T10:43:18.379Z,1003.81
2023-01-01T10:44:18.367Z,1003.94
2023-01-01T10:45:18.381Z,1003.91
2023-01-01T10:46:18.350Z,1003.94
2023-01-01T10:47:18.338Z,1003.76
2023-01-01T10:48:18.326Z,1003.89
2023-01-01T10:49:18.313Z,1003.7
2023-01-01T10:50:18.309Z,1003.76
2023-01-01T10:51:18.299Z,1003.75
2023-01-01T10:52:18.284Z,1003.72
2023-01-01T10:53:18.276Z,1003.73
2023-01-01T10:54:18.331Z,1003.68
2023-01-01T10:55:18.257Z,1003.66
2023-01-01T10:56:18.241Z,1003.65
2023-01-01T10:57:18.238Z,1003.63
2023-01-01T10:58:18.219Z,1003.57
2023-01-01T10:59:18.522Z,1003.57
2023-01-01T11:00:18.198Z,1003.52
2023-01-01T11:01:18.194Z,1003.5
2023-01-01T11:02:18.177Z,1003.51
2023-01-01T11:03:18.169Z,1003.5
2023-01-01T11:04:18.171Z,1003.51
2023-01-01T11:05:18.146Z,1003.47
2023-01-01T11:06:18.146Z,1003.54
2023-01-01T11:07:18.135Z,1003.54
2023-01-01T11:08:18.137Z,1003.52
2023-01-01T11:09:18.110Z,1003.6
2023-01-01T11:10:18.096Z,1003.6
2023-01-01T11:11:18.112Z,1003.63
2023-01-01T11:12:18.073Z,1003.65
2023-01-01T11:13:18.075Z,1003.64
2023-01-01T11:14:18.056Z,1003.7
2023-01-01T11:15:18.084Z,1003.68
2023-01-01T11:16:18.034Z,1003.63
2023-01-01T11:17:18.025Z,1003.61
2023-01-01T11:18:18.009Z,1003.55
2023-01-01T11:19:18.004Z,1003.51
2023-01-01T11:20:17.994Z,1003.54
2023-01-01T11:21:17.976Z,1003.46
2023-01-01T11:22:17.979Z,1003.39
2023-01-01T11:23:17.970Z,1003.4
2023-01-01T11:24:17.947Z,1003.33
2023-01-01T11:25:17.938Z,1003.35
2023-01-01T11:26:17.929Z,1003.38
2023-01-01T11:27:17.924Z,1003.44
2023-01-01T11:28:17.903Z,1003.35
2023-01-01T11:29:17.908Z,1003.37
2023-01-01T11:30:17.888Z,1003.36
2023-01-01T11:31:17.873Z,1003.35
2023-01-01T11:32:17.864Z,1003.25
2023-01-01T11:33:17.868Z,1003.22
2023-01-01T11:34:17.864Z,1003.29
2023-01-01T11:35:17.837Z,1003.26
2023-01-01T11:36:17.834Z,1003.27
2023-01-01T11:37:17.825Z,1003.34
2023-01-01T11:38:17.804Z,1003.3
2023-01-01T11:39:17.812Z,1003.29
2023-01-01T11:40:17.787Z,1003.3
2023-01-01T11:41:17.791Z,1003.31
2023-01-01T11:42:17.792Z,1003.3
2023-01-01T11:43:17.816Z,1003.34
2023-01-01T11:44:17.742Z,1003.34
2023-01-01T11:45:17.725Z,1003.34
2023-01-01T11:46:17.720Z,1003.34
2023-01-01T11:47:17.717Z,1003.42
2023-01-01T11:48:17.694Z,1003.41
2023-01-01T11:49:17.683Z,1003.5
2023-01-01T11:50:17.717Z,1003.44
2023-01-01T11:51:17.662Z,1003.46
2023-01-01T11:52:17.652Z,1003.5
2023-01-01T11:53:17.684Z,1003.56
2023-01-01T11:54:17.629Z,1003.48
2023-01-01T11:55:17.672Z,1003.5
2023-01-01T11:56:17.661Z,1003.52
2023-01-01T11:57:17.651Z,1003.48
2023-01-01T11:58:17.594Z,1003.49
2023-01-01T11:59:17.615Z,1003.5
2023-01-01T12:00:17.641Z,1003.52
2023-01-01T12:01:17.561Z,1003.54
2023-01-01T12:02:17.564Z,1003.55
2023-01-01T12:03:17.559Z,1003.53
2023-01-01T12:04:17.526Z,1003.48
2023-01-01T12:05:17.512Z,1003.52
2023-01-01T12:06:17.534Z,1003.54
2023-01-01T12:07:17.497Z,1003.56
2023-01-01T12:08:17.481Z,1003.61
2023-01-01T12:09:17.490Z,1003.64
2023-01-01T12:10:17.464Z,1003.63
2023-01-01T12:11:17.447Z,1003.67
2023-01-01T12:12:17.440Z,1003.71
2023-01-01T12:13:17.430Z,1003.69
2023-01-01T12:14:17.420Z,1003.72
2023-01-01T12:15:17.420Z,1003.76
2023-01-01T12:31:14.949Z,1003.84
2023-01-01T12:32:15.880Z,1003.94
2023-01-01T12:33:14.869Z,1003.91
2023-01-01T12:34:14.976Z,1003.96
2023-01-01T12:35:14.885Z,1003.95
2023-01-01T12:36:14.867Z,1003.95
2023-01-01T12:37:14.828Z,1003.85
2023-01-01T12:38:14.936Z,1003.83